sensor_id;sensor_type;location;lat;lon;timestamp;P1;durP1;ratioP1;P2;durP2;ratioP2
20306;SDS011;10312;52.434;13.206;2023-07-02T00:02:25;1.63;;;1.38;;
20306;SDS011;10312;52.434;13.206;2023-07-02T00:04:52;2.10;;;1.10;;
20306;SDS011;10312;52.434;13.206;2023-07-02T00:07:19;1.48;;;1.20;;
20306;SDS011;10312;52.434;13.206;2023-07-02T00:09:52;2.63;;;1.60;;
20306;SDS011;10312;52.434;13.206;2023-07-02T00:12:20;1.52;;;1.13;;
20306;SDS011;10312;52.434;13.206;2023-07-02T00:14:47;2.22;;;1.33;;
20306;SDS011;10312;52.434;13.206;2023-07-02T00:17:14;1.60;;;1.30;;
20306;SDS011;10312;52.434;13.206;2023-07-02T00:19:41;2.60;;;1.55;;
20306;SDS011;10312;52.434;13.206;2023-07-02T00:22:08;2.53;;;1.70;;
20306;SDS011;10312;52.434;13.206;2023-07-02T00:24:36;1.88;;;1.25;;
20306;SDS011;10312;52.434;13.206;2023-07-02T00:30:39;1.85;;;1.23;;
20306;SDS011;10312;52.434;13.206;2023-07-02T00:33:06;2.10;;;1.90;;
20306;SDS011;10312;52.434;13.206;2023-07-02T00:35:33;3.38;;;1.70;;
20306;SDS011;10312;52.434;13.206;2023-07-02T00:38:00;2.75;;;2.22;;
20306;SDS011;10312;52.434;13.206;2023-07-02T00:40:31;3.33;;;1.80;;
20306;SDS011;10312;52.434;13.206;2023-07-02T00:42:57;3.50;;;1.95;;
20306;SDS011;10312;52.434;13.206;2023-07-02T00:45:24;3.92;;;3.05;;
20306;SDS011;10312;52.434;13.206;2023-07-02T00:47:53;3.03;;;2.30;;
20306;SDS011;10312;52.434;13.206;2023-07-02T00:50:21;3.25;;;2.33;;
20306;SDS011;10312;52.434;13.206;2023-07-02T00:52:49;4.47;;;2.58;;
20306;SDS011;10312;52.434;13.206;2023-07-02T00:55:17;2.75;;;2.10;;
20306;SDS011;10312;52.434;13.206;2023-07-02T00:57:44;3.60;;;2.60;;
20306;SDS011;10312;52.434;13.206;2023-07-02T01:00:13;6.00;;;3.47;;
20306;SDS011;10312;52.434;13.206;2023-07-02T01:02:40;6.25;;;4.40;;
20306;SDS011;10312;52.434;13.206;2023-07-02T01:05:14;3.58;;;2.60;;
20306;SDS011;10312;52.434;13.206;2023-07-02T01:07:41;3.40;;;2.67;;
20306;SDS011;10312;52.434;13.206;2023-07-02T01:10:09;3.78;;;2.38;;
20306;SDS011;10312;52.434;13.206;2023-07-02T01:12:36;3.65;;;2.58;;
20306;SDS011;10312;52.434;13.206;2023-07-02T01:15:04;3.10;;;2.60;;
20306;SDS011;10312;52.434;13.206;2023-07-02T01:17:32;6.05;;;2.72;;
20306;SDS011;10312;52.434;13.206;2023-07-02T01:20:05;3.88;;;2.63;;
20306;SDS011;10312;52.434;13.206;2023-07-02T01:22:34;6.22;;;2.78;;
20306;SDS011;10312;52.434;13.206;2023-07-02T01:25:01;2.92;;;2.10;;
20306;SDS011;10312;52.434;13.206;2023-07-02T01:27:29;5.82;;;2.92;;
20306;SDS011;10312;52.434;13.206;2023-07-02T01:29:56;3.72;;;2.42;;
20306;SDS011;10312;52.434;13.206;2023-07-02T01:32:23;4.25;;;2.53;;
20306;SDS011;10312;52.434;13.206;2023-07-02T01:34:51;3.33;;;2.65;;
20306;SDS011;10312;52.434;13.206;2023-07-02T01:37:20;4.97;;;3.05;;
20306;SDS011;10312;52.434;13.206;2023-07-02T01:39:47;4.30;;;2.97;;
20306;SDS011;10312;52.434;13.206;2023-07-02T01:42:15;3.92;;;2.95;;
20306;SDS011;10312;52.434;13.206;2023-07-02T01:44:47;5.72;;;3.28;;
20306;SDS011;10312;52.434;13.206;2023-07-02T01:47:15;4.07;;;3.33;;
20306;SDS011;10312;52.434;13.206;2023-07-02T01:49:46;5.40;;;3.38;;
20306;SDS011;10312;52.434;13.206;2023-07-02T01:52:13;5.50;;;3.30;;
20306;SDS011;10312;52.434;13.206;2023-07-02T01:54:40;4.75;;;3.35;;
20306;SDS011;10312;52.434;13.206;2023-07-02T01:57:08;4.47;;;3.00;;
20306;SDS011;10312;52.434;13.206;2023-07-02T01:59:38;4.57;;;2.97;;
20306;SDS011;10312;52.434;13.206;2023-07-02T02:02:05;3.60;;;3.00;;
20306;SDS011;10312;52.434;13.206;2023-07-02T02:04:35;3.42;;;2.83;;
20306;SDS011;10312;52.434;13.206;2023-07-02T02:07:02;3.50;;;2.88;;
20306;SDS011;10312;52.434;13.206;2023-07-02T02:09:29;3.90;;;2.63;;
20306;SDS011;10312;52.434;13.206;2023-07-02T02:11:59;4.68;;;2.90;;
20306;SDS011;10312;52.434;13.206;2023-07-02T02:14:29;3.42;;;2.55;;
20306;SDS011;10312;52.434;13.206;2023-07-02T02:16:56;3.28;;;2.50;;
20306;SDS011;10312;52.434;13.206;2023-07-02T02:19:30;5.47;;;2.55;;
20306;SDS011;10312;52.434;13.206;2023-07-02T02:21:57;3.75;;;2.45;;
20306;SDS011;10312;52.434;13.206;2023-07-02T02:24:24;3.92;;;2.53;;
20306;SDS011;10312;52.434;13.206;2023-07-02T02:26:50;4.00;;;2.78;;
20306;SDS011;10312;52.434;13.206;2023-07-02T02:29:17;4.75;;;2.67;;
20306;SDS011;10312;52.434;13.206;2023-07-02T02:31:48;4.00;;;2.60;;
20306;SDS011;10312;52.434;13.206;2023-07-02T02:34:15;4.38;;;2.53;;
20306;SDS011;10312;52.434;13.206;2023-07-02T02:36:42;3.20;;;2.58;;
20306;SDS011;10312;52.434;13.206;2023-07-02T02:39:09;5.18;;;2.47;;
20306;SDS011;10312;52.434;13.206;2023-07-02T02:41:36;2.70;;;2.28;;
20306;SDS011;10312;52.434;13.206;2023-07-02T02:44:04;5.93;;;2.58;;
20306;SDS011;10312;52.434;13.206;2023-07-02T02:46:31;2.92;;;2.10;;
20306;SDS011;10312;52.434;13.206;2023-07-02T02:48:58;3.25;;;2.47;;
20306;SDS011;10312;52.434;13.206;2023-07-02T02:51:25;4.10;;;2.55;;
20306;SDS011;10312;52.434;13.206;2023-07-02T02:53:52;3.30;;;2.25;;
20306;SDS011;10312;52.434;13.206;2023-07-02T02:56:19;4.75;;;2.10;;
20306;SDS011;10312;52.434;13.206;2023-07-02T02:58:45;5.40;;;2.33;;
20306;SDS011;10312;52.434;13.206;2023-07-02T03:01:12;4.75;;;2.40;;
20306;SDS011;10312;52.434;13.206;2023-07-02T03:03:40;3.28;;;2.28;;
20306;SDS011;10312;52.434;13.206;2023-07-02T03:06:14;7.10;;;2.17;;
20306;SDS011;10312;52.434;13.206;2023-07-02T03:08:42;2.83;;;2.33;;
20306;SDS011;10312;52.434;13.206;2023-07-02T03:11:09;4.93;;;2.28;;
20306;SDS011;10312;52.434;13.206;2023-07-02T03:13:36;6.32;;;2.53;;
20306;SDS011;10312;52.434;13.206;2023-07-02T03:16:03;2.80;;;2.25;;
20306;SDS011;10312;52.434;13.206;2023-07-02T03:18:30;4.40;;;2.90;;
20306;SDS011;10312;52.434;13.206;2023-07-02T03:20:57;4.50;;;2.50;;
20306;SDS011;10312;52.434;13.206;2023-07-02T03:23:25;2.90;;;2.40;;
20306;SDS011;10312;52.434;13.206;2023-07-02T03:25:52;3.53;;;2.35;;
20306;SDS011;10312;52.434;13.206;2023-07-02T03:28:19;3.20;;;2.33;;
20306;SDS011;10312;52.434;13.206;2023-07-02T03:30:45;3.30;;;2.63;;
20306;SDS011;10312;52.434;13.206;2023-07-02T03:33:13;5.18;;;2.55;;
20306;SDS011;10312;52.434;13.206;2023-07-02T03:35:40;3.60;;;2.47;;
20306;SDS011;10312;52.434;13.206;2023-07-02T03:38:06;7.47;;;3.08;;
20306;SDS011;10312;52.434;13.206;2023-07-02T03:40:33;5.20;;;2.13;;
20306;SDS011;10312;52.434;13.206;2023-07-02T03:43:00;2.95;;;2.38;;
20306;SDS011;10312;52.434;13.206;2023-07-02T03:45:27;4.25;;;2.25;;
20306;SDS011;10312;52.434;13.206;2023-07-02T03:47:54;5.63;;;2.30;;
20306;SDS011;10312;52.434;13.206;2023-07-02T03:50:21;4.70;;;2.30;;
20306;SDS011;10312;52.434;13.206;2023-07-02T03:52:48;4.70;;;2.33;;
20306;SDS011;10312;52.434;13.206;2023-07-02T03:55:16;4.38;;;2.03;;
20306;SDS011;10312;52.434;13.206;2023-07-02T03:57:43;3.45;;;1.95;;
20306;SDS011;10312;52.434;13.206;2023-07-02T04:00:10;4.50;;;2.30;;
20306;SDS011;10312;52.434;13.206;2023-07-02T04:02:40;3.97;;;2.30;;
20306;SDS011;10312;52.434;13.206;2023-07-02T04:05:08;2.88;;;2.17;;
20306;SDS011;10312;52.434;13.206;2023-07-02T04:07:35;3.75;;;2.00;;
20306;SDS011;10312;52.434;13.206;2023-07-02T04:10:02;2.97;;;1.85;;
20306;SDS011;10312;52.434;13.206;2023-07-02T04:12:29;3.78;;;2.10;;
20306;SDS011;10312;52.434;13.206;2023-07-02T04:14:57;3.28;;;1.85;;
20306;SDS011;10312;52.434;13.206;2023-07-02T04:17:27;5.30;;;2.10;;
20306;SDS011;10312;52.434;13.206;2023-07-02T04:19:54;4.35;;;1.80;;
20306;SDS011;10312;52.434;13.206;2023-07-02T04:22:21;4.03;;;2.17;;
20306;SDS011;10312;52.434;13.206;2023-07-02T04:24:48;3.58;;;2.20;;
20306;SDS011;10312;52.434;13.206;2023-07-02T04:27:18;3.63;;;2.10;;
20306;SDS011;10312;52.434;13.206;2023-07-02T04:30:05;4.20;;;2.70;;
20306;SDS011;10312;52.434;13.206;2023-07-02T04:32:35;3.10;;;1.92;;
20306;SDS011;10312;52.434;13.206;2023-07-02T04:35:02;4.07;;;2.10;;
20306;SDS011;10312;52.434;13.206;2023-07-02T04:37:29;7.13;;;1.98;;
20306;SDS011;10312;52.434;13.206;2023-07-02T04:39:56;6.28;;;2.20;;
20306;SDS011;10312;52.434;13.206;2023-07-02T04:42:23;4.03;;;2.08;;
20306;SDS011;10312;52.434;13.206;2023-07-02T04:44:55;3.13;;;1.98;;
20306;SDS011;10312;52.434;13.206;2023-07-02T04:47:22;2.75;;;2.03;;
20306;SDS011;10312;52.434;13.206;2023-07-02T04:49:49;4.25;;;2.15;;
20306;SDS011;10312;52.434;13.206;2023-07-02T04:52:16;5.20;;;2.00;;
20306;SDS011;10312;52.434;13.206;2023-07-02T04:54:43;3.10;;;2.00;;
20306;SDS011;10312;52.434;13.206;2023-07-02T04:57:09;4.07;;;2.20;;
20306;SDS011;10312;52.434;13.206;2023-07-02T04:59:36;4.93;;;2.58;;
20306;SDS011;10312;52.434;13.206;2023-07-02T05:02:03;3.33;;;2.30;;
20306;SDS011;10312;52.434;13.206;2023-07-02T05:04:30;3.90;;;2.10;;
20306;SDS011;10312;52.434;13.206;2023-07-02T05:06:57;4.45;;;2.20;;
20306;SDS011;10312;52.434;13.206;2023-07-02T05:09:24;4.28;;;2.03;;
20306;SDS011;10312;52.434;13.206;2023-07-02T05:11:51;3.95;;;2.25;;
20306;SDS011;10312;52.434;13.206;2023-07-02T05:14:18;3.03;;;2.05;;
20306;SDS011;10312;52.434;13.206;2023-07-02T05:16:45;3.00;;;2.15;;
20306;SDS011;10312;52.434;13.206;2023-07-02T05:19:12;4.20;;;2.20;;
20306;SDS011;10312;52.434;13.206;2023-07-02T05:21:39;3.03;;;1.80;;
20306;SDS011;10312;52.434;13.206;2023-07-02T05:24:06;4.13;;;2.10;;
20306;SDS011;10312;52.434;13.206;2023-07-02T05:26:33;4.25;;;2.05;;
20306;SDS011;10312;52.434;13.206;2023-07-02T05:29:01;4.82;;;2.30;;
20306;SDS011;10312;52.434;13.206;2023-07-02T05:31:28;3.00;;;2.10;;
20306;SDS011;10312;52.434;13.206;2023-07-02T05:33:55;2.95;;;1.90;;
20306;SDS011;10312;52.434;13.206;2023-07-02T05:36:22;4.63;;;2.22;;
20306;SDS011;10312;52.434;13.206;2023-07-02T05:38:49;4.78;;;1.90;;
20306;SDS011;10312;52.434;13.206;2023-07-02T05:41:20;3.67;;;1.80;;
20306;SDS011;10312;52.434;13.206;2023-07-02T05:43:47;4.88;;;2.10;;
20306;SDS011;10312;52.434;13.206;2023-07-02T05:46:14;3.22;;;1.77;;
20306;SDS011;10312;52.434;13.206;2023-07-02T05:48:41;5.22;;;2.00;;
20306;SDS011;10312;52.434;13.206;2023-07-02T05:51:09;4.47;;;1.95;;
20306;SDS011;10312;52.434;13.206;2023-07-02T05:53:37;3.15;;;1.75;;
20306;SDS011;10312;52.434;13.206;2023-07-02T05:56:03;3.72;;;1.98;;
20306;SDS011;10312;52.434;13.206;2023-07-02T05:58:30;3.50;;;1.67;;
20306;SDS011;10312;52.434;13.206;2023-07-02T06:01:13;3.38;;;1.83;;
20306;SDS011;10312;52.434;13.206;2023-07-02T06:03:40;6.30;;;2.08;;
20306;SDS011;10312;52.434;13.206;2023-07-02T06:06:09;5.50;;;1.98;;
20306;SDS011;10312;52.434;13.206;2023-07-02T06:08:38;5.93;;;2.10;;
20306;SDS011;10312;52.434;13.206;2023-07-02T06:11:05;4.43;;;2.28;;
20306;SDS011;10312;52.434;13.206;2023-07-02T06:13:31;3.33;;;1.52;;
20306;SDS011;10312;52.434;13.206;2023-07-02T06:15:58;4.70;;;1.92;;
20306;SDS011;10312;52.434;13.206;2023-07-02T06:18:25;3.35;;;1.80;;
20306;SDS011;10312;52.434;13.206;2023-07-02T06:20:53;3.95;;;1.92;;
20306;SDS011;10312;52.434;13.206;2023-07-02T06:23:20;4.80;;;1.63;;
20306;SDS011;10312;52.434;13.206;2023-07-02T06:25:49;4.38;;;1.85;;
20306;SDS011;10312;52.434;13.206;2023-07-02T06:28:18;3.10;;;1.70;;
20306;SDS011;10312;52.434;13.206;2023-07-02T06:30:45;4.07;;;1.60;;
20306;SDS011;10312;52.434;13.206;2023-07-02T06:33:13;2.80;;;1.63;;
20306;SDS011;10312;52.434;13.206;2023-07-02T06:35:40;4.43;;;1.60;;
20306;SDS011;10312;52.434;13.206;2023-07-02T06:38:07;4.80;;;2.00;;
20306;SDS011;10312;52.434;13.206;2023-07-02T06:40:34;7.20;;;1.70;;
20306;SDS011;10312;52.434;13.206;2023-07-02T06:43:01;5.10;;;1.92;;
20306;SDS011;10312;52.434;13.206;2023-07-02T06:45:28;2.97;;;1.65;;
20306;SDS011;10312;52.434;13.206;2023-07-02T06:47:54;6.10;;;2.03;;
20306;SDS011;10312;52.434;13.206;2023-07-02T06:50:21;3.10;;;1.50;;
20306;SDS011;10312;52.434;13.206;2023-07-02T06:52:49;7.32;;;2.08;;
20306;SDS011;10312;52.434;13.206;2023-07-02T06:55:16;5.45;;;1.95;;
20306;SDS011;10312;52.434;13.206;2023-07-02T06:57:43;5.43;;;2.00;;
20306;SDS011;10312;52.434;13.206;2023-07-02T07:00:12;3.22;;;1.63;;
20306;SDS011;10312;52.434;13.206;2023-07-02T07:02:40;3.65;;;1.92;;
20306;SDS011;10312;52.434;13.206;2023-07-02T07:05:08;3.60;;;1.67;;
20306;SDS011;10312;52.434;13.206;2023-07-02T07:07:36;5.00;;;2.00;;
20306;SDS011;10312;52.434;13.206;2023-07-02T07:10:03;4.78;;;2.03;;
20306;SDS011;10312;52.434;13.206;2023-07-02T07:12:31;3.47;;;1.65;;
20306;SDS011;10312;52.434;13.206;2023-07-02T07:14:58;3.42;;;1.85;;
20306;SDS011;10312;52.434;13.206;2023-07-02T07:17:25;3.88;;;2.10;;
20306;SDS011;10312;52.434;13.206;2023-07-02T07:19:52;4.30;;;2.03;;
20306;SDS011;10312;52.434;13.206;2023-07-02T07:22:19;3.65;;;1.60;;
20306;SDS011;10312;52.434;13.206;2023-07-02T07:24:46;8.15;;;1.92;;
20306;SDS011;10312;52.434;13.206;2023-07-02T07:27:13;3.55;;;1.80;;
20306;SDS011;10312;52.434;13.206;2023-07-02T07:29:40;4.65;;;1.83;;
20306;SDS011;10312;52.434;13.206;2023-07-02T07:32:06;3.15;;;1.65;;
20306;SDS011;10312;52.434;13.206;2023-07-02T07:34:34;2.90;;;1.60;;
20306;SDS011;10312;52.434;13.206;2023-07-02T07:37:01;4.55;;;1.60;;
20306;SDS011;10312;52.434;13.206;2023-07-02T07:39:28;3.92;;;1.90;;
20306;SDS011;10312;52.434;13.206;2023-07-02T07:41:54;3.35;;;1.63;;
20306;SDS011;10312;52.434;13.206;2023-07-02T07:44:22;3.50;;;1.65;;
20306;SDS011;10312;52.434;13.206;2023-07-02T07:46:49;2.55;;;1.60;;
20306;SDS011;10312;52.434;13.206;2023-07-02T07:49:16;2.65;;;1.40;;
20306;SDS011;10312;52.434;13.206;2023-07-02T07:51:43;3.10;;;1.52;;
20306;SDS011;10312;52.434;13.206;2023-07-02T07:54:10;2.88;;;1.83;;
20306;SDS011;10312;52.434;13.206;2023-07-02T07:56:38;2.88;;;1.70;;
20306;SDS011;10312;52.434;13.206;2023-07-02T07:59:05;4.72;;;1.77;;
20306;SDS011;10312;52.434;13.206;2023-07-02T08:01:33;2.60;;;1.65;;
20306;SDS011;10312;52.434;13.206;2023-07-02T08:04:00;3.70;;;2.00;;
20306;SDS011;10312;52.434;13.206;2023-07-02T08:06:27;3.55;;;2.10;;
20306;SDS011;10312;52.434;13.206;2023-07-02T08:08:54;3.92;;;1.90;;
20306;SDS011;10312;52.434;13.206;2023-07-02T08:11:22;3.20;;;1.85;;
20306;SDS011;10312;52.434;13.206;2023-07-02T08:13:49;4.88;;;2.00;;
20306;SDS011;10312;52.434;13.206;2023-07-02T08:16:20;3.67;;;1.98;;
20306;SDS011;10312;52.434;13.206;2023-07-02T08:18:47;5.53;;;2.42;;
20306;SDS011;10312;52.434;13.206;2023-07-02T08:21:14;8.23;;;2.95;;
20306;SDS011;10312;52.434;13.206;2023-07-02T08:23:42;5.40;;;2.60;;
20306;SDS011;10312;52.434;13.206;2023-07-02T08:26:10;5.82;;;2.80;;
20306;SDS011;10312;52.434;13.206;2023-07-02T08:28:38;6.28;;;2.65;;
20306;SDS011;10312;52.434;13.206;2023-07-02T08:31:05;5.93;;;3.00;;
20306;SDS011;10312;52.434;13.206;2023-07-02T08:33:32;6.00;;;2.78;;
20306;SDS011;10312;52.434;13.206;2023-07-02T08:35:59;5.80;;;2.90;;
20306;SDS011;10312;52.434;13.206;2023-07-02T08:38:31;5.65;;;2.97;;
20306;SDS011;10312;52.434;13.206;2023-07-02T08:40:58;6.03;;;2.78;;
20306;SDS011;10312;52.434;13.206;2023-07-02T08:43:25;7.10;;;3.03;;
20306;SDS011;10312;52.434;13.206;2023-07-02T08:45:53;9.30;;;2.90;;
20306;SDS011;10312;52.434;13.206;2023-07-02T08:48:21;4.65;;;2.83;;
20306;SDS011;10312;52.434;13.206;2023-07-02T08:50:50;4.57;;;2.70;;
20306;SDS011;10312;52.434;13.206;2023-07-02T08:53:18;5.47;;;2.95;;
20306;SDS011;10312;52.434;13.206;2023-07-02T08:55:45;8.90;;;2.85;;
20306;SDS011;10312;52.434;13.206;2023-07-02T08:58:12;5.45;;;2.67;;
20306;SDS011;10312;52.434;13.206;2023-07-02T09:00:40;5.60;;;2.90;;
20306;SDS011;10312;52.434;13.206;2023-07-02T09:03:14;6.68;;;2.92;;
20306;SDS011;10312;52.434;13.206;2023-07-02T09:05:51;6.75;;;3.03;;
20306;SDS011;10312;52.434;13.206;2023-07-02T09:08:24;8.32;;;3.50;;
20306;SDS011;10312;52.434;13.206;2023-07-02T09:10:52;5.68;;;2.90;;
20306;SDS011;10312;52.434;13.206;2023-07-02T09:13:19;6.22;;;3.25;;
20306;SDS011;10312;52.434;13.206;2023-07-02T09:15:47;5.75;;;2.80;;
20306;SDS011;10312;52.434;13.206;2023-07-02T09:18:17;6.10;;;3.35;;
20306;SDS011;10312;52.434;13.206;2023-07-02T09:20:51;7.57;;;3.38;;
20306;SDS011;10312;52.434;13.206;2023-07-02T09:23:20;5.72;;;3.00;;
20306;SDS011;10312;52.434;13.206;2023-07-02T09:25:47;6.15;;;3.17;;
20306;SDS011;10312;52.434;13.206;2023-07-02T09:28:15;5.38;;;3.40;;
20306;SDS011;10312;52.434;13.206;2023-07-02T09:30:54;6.45;;;3.22;;
20306;SDS011;10312;52.434;13.206;2023-07-02T09:33:25;7.00;;;3.70;;
20306;SDS011;10312;52.434;13.206;2023-07-02T09:35:54;7.75;;;3.17;;
20306;SDS011;10312;52.434;13.206;2023-07-02T09:38:22;7.57;;;3.67;;
20306;SDS011;10312;52.434;13.206;2023-07-02T09:40:50;6.13;;;3.25;;
20306;SDS011;10312;52.434;13.206;2023-07-02T09:43:19;6.30;;;3.38;;
20306;SDS011;10312;52.434;13.206;2023-07-02T09:45:47;8.55;;;3.22;;
20306;SDS011;10312;52.434;13.206;2023-07-02T09:48:15;7.78;;;3.13;;
20306;SDS011;10312;52.434;13.206;2023-07-02T09:50:43;6.97;;;3.38;;
20306;SDS011;10312;52.434;13.206;2023-07-02T09:53:11;7.65;;;3.80;;
20306;SDS011;10312;52.434;13.206;2023-07-02T09:55:39;6.50;;;3.20;;
20306;SDS011;10312;52.434;13.206;2023-07-02T09:58:08;7.88;;;3.42;;
20306;SDS011;10312;52.434;13.206;2023-07-02T10:00:36;7.75;;;3.70;;
20306;SDS011;10312;52.434;13.206;2023-07-02T10:03:03;9.38;;;3.40;;
20306;SDS011;10312;52.434;13.206;2023-07-02T10:05:32;8.13;;;3.85;;
20306;SDS011;10312;52.434;13.206;2023-07-02T10:08:15;6.80;;;3.70;;
20306;SDS011;10312;52.434;13.206;2023-07-02T10:10:48;6.00;;;3.33;;
20306;SDS011;10312;52.434;13.206;2023-07-02T10:13:26;7.32;;;3.63;;
20306;SDS011;10312;52.434;13.206;2023-07-02T10:16:00;9.70;;;4.40;;
20306;SDS011;10312;52.434;13.206;2023-07-02T10:18:31;12.32;;;4.45;;
20306;SDS011;10312;52.434;13.206;2023-07-02T10:20:58;7.35;;;3.45;;
20306;SDS011;10312;52.434;13.206;2023-07-02T10:23:34;8.32;;;3.75;;
20306;SDS011;10312;52.434;13.206;2023-07-02T10:26:18;10.07;;;4.10;;
20306;SDS011;10312;52.434;13.206;2023-07-02T10:28:58;8.73;;;4.00;;
20306;SDS011;10312;52.434;13.206;2023-07-02T10:31:25;7.07;;;3.90;;
20306;SDS011;10312;52.434;13.206;2023-07-02T10:33:53;9.02;;;4.50;;
20306;SDS011;10312;52.434;13.206;2023-07-02T10:36:20;13.20;;;4.40;;
20306;SDS011;10312;52.434;13.206;2023-07-02T10:38:49;12.23;;;5.10;;
20306;SDS011;10312;52.434;13.206;2023-07-02T10:41:24;11.10;;;4.93;;
20306;SDS011;10312;52.434;13.206;2023-07-02T10:44:05;11.25;;;4.30;;
20306;SDS011;10312;52.434;13.206;2023-07-02T10:46:33;10.13;;;4.28;;
20306;SDS011;10312;52.434;13.206;2023-07-02T10:49:00;10.15;;;4.80;;
20306;SDS011;10312;52.434;13.206;2023-07-02T10:51:27;9.98;;;4.38;;
20306;SDS011;10312;52.434;13.206;2023-07-02T10:53:59;15.20;;;5.55;;
20306;SDS011;10312;52.434;13.206;2023-07-02T10:56:27;9.15;;;4.50;;
20306;SDS011;10312;52.434;13.206;2023-07-02T10:58:54;15.45;;;5.18;;
20306;SDS011;10312;52.434;13.206;2023-07-02T11:01:22;11.48;;;4.63;;
20306;SDS011;10312;52.434;13.206;2023-07-02T11:03:57;8.68;;;4.47;;
20306;SDS011;10312;52.434;13.206;2023-07-02T11:06:28;10.35;;;4.45;;
20306;SDS011;10312;52.434;13.206;2023-07-02T11:08:56;8.65;;;4.80;;
20306;SDS011;10312;52.434;13.206;2023-07-02T11:11:23;11.63;;;4.78;;
20306;SDS011;10312;52.434;13.206;2023-07-02T11:13:51;8.15;;;4.65;;
20306;SDS011;10312;52.434;13.206;2023-07-02T11:16:25;10.27;;;5.03;;
20306;SDS011;10312;52.434;13.206;2023-07-02T11:18:54;12.50;;;5.43;;
20306;SDS011;10312;52.434;13.206;2023-07-02T11:21:33;10.63;;;4.70;;
20306;SDS011;10312;52.434;13.206;2023-07-02T11:24:07;16.92;;;4.90;;
20306;SDS011;10312;52.434;13.206;2023-07-02T11:26:38;11.88;;;4.53;;
20306;SDS011;10312;52.434;13.206;2023-07-02T11:29:11;10.50;;;5.40;;
20306;SDS011;10312;52.434;13.206;2023-07-02T11:31:38;15.18;;;5.40;;
20306;SDS011;10312;52.434;13.206;2023-07-02T11:34:20;11.52;;;4.75;;
20306;SDS011;10312;52.434;13.206;2023-07-02T11:36:51;14.32;;;5.03;;
20306;SDS011;10312;52.434;13.206;2023-07-02T11:39:20;11.13;;;5.07;;
20306;SDS011;10312;52.434;13.206;2023-07-02T11:41:48;8.82;;;4.80;;
20306;SDS011;10312;52.434;13.206;2023-07-02T11:44:16;12.43;;;5.05;;
20306;SDS011;10312;52.434;13.206;2023-07-02T11:46:47;9.90;;;4.90;;
20306;SDS011;10312;52.434;13.206;2023-07-02T11:49:14;13.32;;;5.28;;
20306;SDS011;10312;52.434;13.206;2023-07-02T11:51:42;13.35;;;4.97;;
20306;SDS011;10312;52.434;13.206;2023-07-02T11:54:15;12.70;;;4.50;;
20306;SDS011;10312;52.434;13.206;2023-07-02T11:56:43;9.73;;;4.55;;
20306;SDS011;10312;52.434;13.206;2023-07-02T11:59:10;13.23;;;5.25;;
20306;SDS011;10312;52.434;13.206;2023-07-02T12:01:38;11.20;;;4.90;;
20306;SDS011;10312;52.434;13.206;2023-07-02T12:04:06;13.73;;;5.47;;
20306;SDS011;10312;52.434;13.206;2023-07-02T12:06:34;11.80;;;4.78;;
20306;SDS011;10312;52.434;13.206;2023-07-02T12:09:01;11.27;;;4.60;;
20306;SDS011;10312;52.434;13.206;2023-07-02T12:11:28;12.68;;;4.40;;
20306;SDS011;10312;52.434;13.206;2023-07-02T12:13:55;14.48;;;5.43;;
20306;SDS011;10312;52.434;13.206;2023-07-02T12:16:22;12.90;;;5.32;;
20306;SDS011;10312;52.434;13.206;2023-07-02T12:18:49;10.88;;;5.57;;
20306;SDS011;10312;52.434;13.206;2023-07-02T12:21:16;11.10;;;4.38;;
20306;SDS011;10312;52.434;13.206;2023-07-02T12:23:44;12.38;;;5.53;;
20306;SDS011;10312;52.434;13.206;2023-07-02T12:26:12;13.07;;;5.03;;
20306;SDS011;10312;52.434;13.206;2023-07-02T12:28:39;10.65;;;5.05;;
20306;SDS011;10312;52.434;13.206;2023-07-02T12:31:07;11.80;;;5.05;;
20306;SDS011;10312;52.434;13.206;2023-07-02T12:33:34;9.77;;;5.22;;
20306;SDS011;10312;52.434;13.206;2023-07-02T12:36:01;16.60;;;5.30;;
20306;SDS011;10312;52.434;13.206;2023-07-02T12:38:29;13.85;;;4.90;;
20306;SDS011;10312;52.434;13.206;2023-07-02T12:40:56;9.70;;;4.95;;
20306;SDS011;10312;52.434;13.206;2023-07-02T12:43:23;10.45;;;4.93;;
20306;SDS011;10312;52.434;13.206;2023-07-02T12:45:50;9.80;;;5.32;;
20306;SDS011;10312;52.434;13.206;2023-07-02T12:48:18;11.60;;;4.68;;
20306;SDS011;10312;52.434;13.206;2023-07-02T12:50:54;11.98;;;5.10;;
20306;SDS011;10312;52.434;13.206;2023-07-02T12:53:22;19.05;;;5.97;;
20306;SDS011;10312;52.434;13.206;2023-07-02T12:55:50;15.65;;;5.30;;
20306;SDS011;10312;52.434;13.206;2023-07-02T12:58:17;10.88;;;4.80;;
20306;SDS011;10312;52.434;13.206;2023-07-02T13:00:44;12.63;;;5.20;;
20306;SDS011;10312;52.434;13.206;2023-07-02T13:03:12;17.33;;;5.30;;
20306;SDS011;10312;52.434;13.206;2023-07-02T13:05:39;14.38;;;5.50;;
20306;SDS011;10312;52.434;13.206;2023-07-02T13:08:06;11.18;;;4.60;;
20306;SDS011;10312;52.434;13.206;2023-07-02T13:10:33;11.00;;;4.72;;
20306;SDS011;10312;52.434;13.206;2023-07-02T13:13:02;10.18;;;4.80;;
20306;SDS011;10312;52.434;13.206;2023-07-02T13:15:47;14.05;;;5.20;;
20306;SDS011;10312;52.434;13.206;2023-07-02T13:18:14;9.18;;;4.93;;
20306;SDS011;10312;52.434;13.206;2023-07-02T13:20:41;12.68;;;4.88;;
20306;SDS011;10312;52.434;13.206;2023-07-02T13:23:09;10.48;;;5.55;;
20306;SDS011;10312;52.434;13.206;2023-07-02T13:25:36;10.90;;;4.95;;
20306;SDS011;10312;52.434;13.206;2023-07-02T13:28:03;11.70;;;5.45;;
20306;SDS011;10312;52.434;13.206;2023-07-02T13:30:30;9.73;;;5.03;;
20306;SDS011;10312;52.434;13.206;2023-07-02T13:32:57;12.70;;;4.78;;
20306;SDS011;10312;52.434;13.206;2023-07-02T13:35:24;13.90;;;5.20;;
20306;SDS011;10312;52.434;13.206;2023-07-02T13:37:51;12.40;;;4.70;;
20306;SDS011;10312;52.434;13.206;2023-07-02T13:40:19;12.57;;;5.20;;
20306;SDS011;10312;52.434;13.206;2023-07-02T13:42:45;11.20;;;5.30;;
20306;SDS011;10312;52.434;13.206;2023-07-02T13:45:13;11.32;;;4.93;;
20306;SDS011;10312;52.434;13.206;2023-07-02T13:47:39;13.52;;;5.63;;
20306;SDS011;10312;52.434;13.206;2023-07-02T13:50:07;11.95;;;4.60;;
20306;SDS011;10312;52.434;13.206;2023-07-02T13:52:34;10.63;;;4.60;;
20306;SDS011;10312;52.434;13.206;2023-07-02T13:55:01;12.10;;;4.85;;
20306;SDS011;10312;52.434;13.206;2023-07-02T13:57:28;9.45;;;4.95;;
20306;SDS011;10312;52.434;13.206;2023-07-02T13:59:58;10.75;;;5.03;;
20306;SDS011;10312;52.434;13.206;2023-07-02T14:02:26;11.85;;;4.50;;
20306;SDS011;10312;52.434;13.206;2023-07-02T14:04:53;8.73;;;5.05;;
20306;SDS011;10312;52.434;13.206;2023-07-02T14:07:21;12.32;;;5.07;;
20306;SDS011;10312;52.434;13.206;2023-07-02T14:09:48;11.45;;;4.75;;
20306;SDS011;10312;52.434;13.206;2023-07-02T14:12:14;12.18;;;5.03;;
20306;SDS011;10312;52.434;13.206;2023-07-02T14:14:41;10.13;;;4.72;;
20306;SDS011;10312;52.434;13.206;2023-07-02T14:17:08;11.30;;;4.97;;
20306;SDS011;10312;52.434;13.206;2023-07-02T14:19:35;12.00;;;4.82;;
20306;SDS011;10312;52.434;13.206;2023-07-02T14:22:02;9.85;;;5.30;;
20306;SDS011;10312;52.434;13.206;2023-07-02T14:24:30;14.57;;;5.28;;
20306;SDS011;10312;52.434;13.206;2023-07-02T14:26:57;14.38;;;4.93;;
20306;SDS011;10312;52.434;13.206;2023-07-02T14:29:27;11.35;;;5.03;;
20306;SDS011;10312;52.434;13.206;2023-07-02T14:31:54;11.75;;;5.22;;
20306;SDS011;10312;52.434;13.206;2023-07-02T14:34:21;9.88;;;4.82;;
20306;SDS011;10312;52.434;13.206;2023-07-02T14:36:48;11.40;;;4.65;;
20306;SDS011;10312;52.434;13.206;2023-07-02T14:39:15;11.05;;;4.88;;
20306;SDS011;10312;52.434;13.206;2023-07-02T14:41:42;9.52;;;4.63;;